sensor_id;sensor_type;location;lat;lon;timestamp;temperature;humidity
18139;DHT22;9195;53.176;9.486;2023-01-01T00:01:37;15.50;99.90
18139;DHT22;9195;53.176;9.486;2023-01-01T00:04:05;15.50;99.90
18139;DHT22;9195;53.176;9.486;2023-01-01T00:06:33;15.50;99.90
18139;DHT22;9195;53.176;9.486;2023-01-01T00:08:59;15.50;99.90
18139;DHT22;9195;53.176;9.486;2023-01-01T00:11:43;15.50;99.90
18139;DHT22;9195;53.176;9.486;2023-01-01T00:14:08;15.50;99.90
18139;DHT22;9195;53.176;9.486;2023-01-01T00:16:34;15.50;99.90
18139;DHT22;9195;53.176;9.486;2023-01-01T00:19:00;15.50;99.90
18139;DHT22;9195;53.176;9.486;2023-01-01T00:21:25;15.50;99.90
18139;DHT22;9195;53.176;9.486;2023-01-01T00:23:51;15.50;99.90
18139;DHT22;9195;53.176;9.486;2023-01-01T00:26:17;15.50;99.90
18139;DHT22;9195;53.176;9.486;2023-01-01T00:28:43;15.50;99.90
18139;DHT22;9195;53.176;9.486;2023-01-01T00:31:12;15.50;99.90
18139;DHT22;9195;53.176;9.486;2023-01-01T00:33:38;15.50;99.90
18139;DHT22;9195;53.176;9.486;2023-01-01T00:36:14;15.60;99.90
18139;DHT22;9195;53.176;9.486;2023-01-01T00:38:41;15.60;99.90
18139;DHT22;9195;53.176;9.486;2023-01-01T00:41:07;15.60;99.90
18139;DHT22;9195;53.176;9.486;2023-01-01T00:43:33;15.50;99.90
18139;DHT22;9195;53.176;9.486;2023-01-01T00:45:58;15.60;99.90
18139;DHT22;9195;53.176;9.486;2023-01-01T00:48:24;15.50;99.90
18139;DHT22;9195;53.176;9.486;2023-01-01T00:50:51;15.50;99.90
18139;DHT22;9195;53.176;9.486;2023-01-01T00:53:18;15.50;99.90
18139;DHT22;9195;53.176;9.486;2023-01-01T00:55:44;15.50;99.90
18139;DHT22;9195;53.176;9.486;2023-01-01T00:58:10;15.60;99.90
18139;DHT22;9195;53.176;9.486;2023-01-01T01:00:36;15.70;99.90
18139;DHT22;9195;53.176;9.486;2023-01-01T01:03:01;15.60;99.90
18139;DHT22;9195;53.176;9.486;2023-01-01T01:05:27;15.60;99.90
18139;DHT22;9195;53.176;9.486;2023-01-01T01:07:53;15.60;99.90
18139;DHT22;9195;53.176;9.486;2023-01-01T01:10:18;15.60;99.90
18139;DHT22;9195;53.176;9.486;2023-01-01T01:12:46;15.60;99.90
18139;DHT22;9195;53.176;9.486;2023-01-01T01:15:12;15.60;99.90
18139;DHT22;9195;53.176;9.486;2023-01-01T01:17:38;15.60;99.90
18139;DHT22;9195;53.176;9.486;2023-01-01T01:20:04;15.60;99.90
18139;DHT22;9195;53.176;9.486;2023-01-01T01:22:30;15.70;99.90
18139;DHT22;9195;53.176;9.486;2023-01-01T01:24:56;15.60;99.90
18139;DHT22;9195;53.176;9.486;2023-01-01T01:27:22;15.60;99.90
18139;DHT22;9195;53.176;9.486;2023-01-01T01:29:48;15.60;99.90
18139;DHT22;9195;53.176;9.486;2023-01-01T01:32:13;15.60;99.90
18139;DHT22;9195;53.176;9.486;2023-01-01T01:34:39;15.70;99.90
18139;DHT22;9195;53.176;9.486;2023-01-01T01:37:05;15.70;99.90
18139;DHT22;9195;53.176;9.486;2023-01-01T01:39:31;15.70;99.90
18139;DHT22;9195;53.176;9.486;2023-01-01T01:41:56;15.70;99.90
18139;DHT22;9195;53.176;9.486;2023-01-01T01:44:54;15.70;99.90
18139;DHT22;9195;53.176;9.486;2023-01-01T01:55:53;15.60;99.90
18139;DHT22;9195;53.176;9.486;2023-01-01T01:58:20;15.60;99.90
18139;DHT22;9195;53.176;9.486;2023-01-01T02:00:46;15.60;99.90
18139;DHT22;9195;53.176;9.486;2023-01-01T02:03:22;15.60;99.90
18139;DHT22;9195;53.176;9.486;2023-01-01T02:05:49;15.60;99.90
18139;DHT22;9195;53.176;9.486;2023-01-01T02:08:16;15.60;99.90
18139;DHT22;9195;53.176;9.486;2023-01-01T02:10:42;15.70;99.90
18139;DHT22;9195;53.176;9.486;2023-01-01T02:13:08;15.60;99.90
18139;DHT22;9195;53.176;9.486;2023-01-01T02:15:39;15.60;99.90
18139;DHT22;9195;53.176;9.486;2023-01-01T02:18:13;15.70;99.90
18139;DHT22;9195;53.176;9.486;2023-01-01T02:31:42;15.00;99.90
18139;DHT22;9195;53.176;9.486;2023-01-01T02:34:12;15.10;99.90
18139;DHT22;9195;53.176;9.486;2023-01-01T02:36:43;15.20;99.90
18139;DHT22;9195;53.176;9.486;2023-01-01T02:39:12;15.30;99.90
18139;DHT22;9195;53.176;9.486;2023-01-01T02:41:44;15.30;99.90
18139;DHT22;9195;53.176;9.486;2023-01-01T02:44:11;15.40;99.90
18139;DHT22;9195;53.176;9.486;2023-01-01T02:46:37;15.50;99.90
18139;DHT22;9195;53.176;9.486;2023-01-01T02:49:03;15.50;99.90
18139;DHT22;9195;53.176;9.486;2023-01-01T02:56:47;15.50;99.90
18139;DHT22;9195;53.176;9.486;2023-01-01T03:05:05;15.50;99.90
18139;DHT22;9195;53.176;9.486;2023-01-01T03:08:03;15.50;99.90
18139;DHT22;9195;53.176;9.486;2023-01-01T03:10:44;15.50;99.90
18139;DHT22;9195;53.176;9.486;2023-01-01T03:16:04;15.40;99.90
18139;DHT22;9195;53.176;9.486;2023-01-01T03:21:08;15.40;99.90
18139;DHT22;9195;53.176;9.486;2023-01-01T03:23:37;15.40;99.90
18139;DHT22;9195;53.176;9.486;2023-01-01T03:26:09;15.40;99.90
18139;DHT22;9195;53.176;9.486;2023-01-01T03:28:43;15.40;99.90
18139;DHT22;9195;53.176;9.486;2023-01-01T03:31:14;15.40;99.90
18139;DHT22;9195;53.176;9.486;2023-01-01T03:33:45;15.40;99.90
18139;DHT22;9195;53.176;9.486;2023-01-01T03:36:15;15.30;99.90
18139;DHT22;9195;53.176;9.486;2023-01-01T03:38:54;15.30;99.90
18139;DHT22;9195;53.176;9.486;2023-01-01T03:44:33;15.20;99.90
18139;DHT22;9195;53.176;9.486;2023-01-01T03:46:59;15.20;99.90
18139;DHT22;9195;53.176;9.486;2023-01-01T03:49:25;15.20;99.90
18139;DHT22;9195;53.176;9.486;2023-01-01T03:52:00;15.10;99.90
18139;DHT22;9195;53.176;9.486;2023-01-01T04:00:04;15.10;99.90
18139;DHT22;9195;53.176;9.486;2023-01-01T04:02:55;15.10;99.90
18139;DHT22;9195;53.176;9.486;2023-01-01T04:05:20;15.10;99.90
18139;DHT22;9195;53.176;9.486;2023-01-01T04:07:47;15.20;99.90
18139;DHT22;9195;53.176;9.486;2023-01-01T04:10:13;15.20;99.90
18139;DHT22;9195;53.176;9.486;2023-01-01T04:12:54;15.20;99.90
18139;DHT22;9195;53.176;9.486;2023-01-01T04:15:22;15.20;99.90
18139;DHT22;9195;53.176;9.486;2023-01-01T04:17:49;15.20;99.90
18139;DHT22;9195;53.176;9.486;2023-01-01T04:20:15;15.20;99.90
18139;DHT22;9195;53.176;9.486;2023-01-01T04:22:41;15.10;99.90
18139;DHT22;9195;53.176;9.486;2023-01-01T04:25:08;15.20;99.90
18139;DHT22;9195;53.176;9.486;2023-01-01T04:27:34;15.20;99.90
18139;DHT22;9195;53.176;9.486;2023-01-01T04:29:59;15.20;99.90
18139;DHT22;9195;53.176;9.486;2023-01-01T04:32:25;15.30;99.90
18139;DHT22;9195;53.176;9.486;2023-01-01T04:34:50;15.30;99.90
18139;DHT22;9195;53.176;9.486;2023-01-01T04:37:16;15.20;99.90
18139;DHT22;9195;53.176;9.486;2023-01-01T04:39:42;15.20;99.90
18139;DHT22;9195;53.176;9.486;2023-01-01T04:42:08;15.30;99.90
18139;DHT22;9195;53.176;9.486;2023-01-01T04:44:33;15.30;99.90
18139;DHT22;9195;53.176;9.486;2023-01-01T04:46:59;15.30;99.90
18139;DHT22;9195;53.176;9.486;2023-01-01T04:49:24;15.30;99.90
18139;DHT22;9195;53.176;9.486;2023-01-01T04:51:50;15.30;99.90
18139;DHT22;9195;53.176;9.486;2023-01-01T04:54:16;15.30;99.90
18139;DHT22;9195;53.176;9.486;2023-01-01T04:56:41;15.30;99.90
18139;DHT22;9195;53.176;9.486;2023-01-01T04:59:07;15.30;99.90
18139;DHT22;9195;53.176;9.486;2023-01-01T05:01:32;15.30;99.90
18139;DHT22;9195;53.176;9.486;2023-01-01T05:03:58;15.30;99.90
18139;DHT22;9195;53.176;9.486;2023-01-01T05:06:25;15.30;99.90
18139;DHT22;9195;53.176;9.486;2023-01-01T05:08:54;15.20;99.90
18139;DHT22;9195;53.176;9.486;2023-01-01T05:11:22;15.20;99.90
18139;DHT22;9195;53.176;9.486;2023-01-01T05:13:51;15.20;99.90
18139;DHT22;9195;53.176;9.486;2023-01-01T05:16:19;15.20;99.90
18139;DHT22;9195;53.176;9.486;2023-01-01T05:18:46;15.10;99.90
18139;DHT22;9195;53.176;9.486;2023-01-01T05:21:17;15.20;99.90
18139;DHT22;9195;53.176;9.486;2023-01-01T05:23:43;15.20;99.90
18139;DHT22;9195;53.176;9.486;2023-01-01T05:26:17;15.10;99.90
18139;DHT22;9195;53.176;9.486;2023-01-01T05:28:44;15.20;99.90
18139;DHT22;9195;53.176;9.486;2023-01-01T05:31:12;15.20;99.90
18139;DHT22;9195;53.176;9.486;2023-01-01T05:33:38;15.20;99.90
18139;DHT22;9195;53.176;9.486;2023-01-01T05:36:04;15.20;99.90
18139;DHT22;9195;53.176;9.486;2023-01-01T05:38:30;15.20;99.90
18139;DHT22;9195;53.176;9.486;2023-01-01T05:40:56;15.20;99.90
18139;DHT22;9195;53.176;9.486;2023-01-01T05:43:23;15.10;99.90
18139;DHT22;9195;53.176;9.486;2023-01-01T05:45:48;15.10;99.90
18139;DHT22;9195;53.176;9.486;2023-01-01T05:48:14;15.10;99.90
18139;DHT22;9195;53.176;9.486;2023-01-01T05:50:40;15.10;99.90
18139;DHT22;9195;53.176;9.486;2023-01-01T05:53:05;15.10;99.90
18139;DHT22;9195;53.176;9.486;2023-01-01T05:55:31;15.10;99.90
18139;DHT22;9195;53.176;9.486;2023-01-01T05:57:56;15.10;99.90
18139;DHT22;9195;53.176;9.486;2023-01-01T06:00:22;15.10;99.90
18139;DHT22;9195;53.176;9.486;2023-01-01T06:02:48;15.10;99.90
18139;DHT22;9195;53.176;9.486;2023-01-01T06:05:19;15.10;99.90
18139;DHT22;9195;53.176;9.486;2023-01-01T06:07:44;15.10;99.90
18139;DHT22;9195;53.176;9.486;2023-01-01T06:10:10;15.10;99.90
18139;DHT22;9195;53.176;9.486;2023-01-01T06:12:35;15.10;99.90
18139;DHT22;9195;53.176;9.486;2023-01-01T06:15:01;15.10;99.90
18139;DHT22;9195;53.176;9.486;2023-01-01T06:17:26;15.00;99.90
18139;DHT22;9195;53.176;9.486;2023-01-01T06:19:52;15.00;99.90
18139;DHT22;9195;53.176;9.486;2023-01-01T06:22:17;15.00;99.90
18139;DHT22;9195;53.176;9.486;2023-01-01T06:24:43;15.00;99.90
18139;DHT22;9195;53.176;9.486;2023-01-01T06:27:09;15.00;99.90
18139;DHT22;9195;53.176;9.486;2023-01-01T06:29:34;14.90;99.90
18139;DHT22;9195;53.176;9.486;2023-01-01T06:32:00;15.00;99.90
18139;DHT22;9195;53.176;9.486;2023-01-01T06:34:25;14.90;99.90
18139;DHT22;9195;53.176;9.486;2023-01-01T06:36:51;14.90;99.90
18139;DHT22;9195;53.176;9.486;2023-01-01T06:39:16;14.90;99.90
18139;DHT22;9195;53.176;9.486;2023-01-01T06:41:42;14.90;99.90
18139;DHT22;9195;53.176;9.486;2023-01-01T06:44:08;15.00;99.90
18139;DHT22;9195;53.176;9.486;2023-01-01T06:46:35;14.90;99.90
18139;DHT22;9195;53.176;9.486;2023-01-01T06:49:05;14.90;99.90
18139;DHT22;9195;53.176;9.486;2023-01-01T06:51:37;14.90;99.90
18139;DHT22;9195;53.176;9.486;2023-01-01T06:54:03;14.90;99.90
18139;DHT22;9195;53.176;9.486;2023-01-01T06:56:30;14.80;99.90
18139;DHT22;9195;53.176;9.486;2023-01-01T06:58:56;14.90;99.90
18139;DHT22;9195;53.176;9.486;2023-01-01T07:01:24;14.80;99.90
18139;DHT22;9195;53.176;9.486;2023-01-01T07:03:55;14.80;99.90
18139;DHT22;9195;53.176;9.486;2023-01-01T07:06:22;14.70;99.90
18139;DHT22;9195;53.176;9.486;2023-01-01T07:08:48;14.70;99.90
18139;DHT22;9195;53.176;9.486;2023-01-01T07:11:14;14.70;99.90
18139;DHT22;9195;53.176;9.486;2023-01-01T07:13:39;14.60;99.90
18139;DHT22;9195;53.176;9.486;2023-01-01T07:16:06;14.70;99.90
18139;DHT22;9195;53.176;9.486;2023-01-01T07:18:32;14.60;99.90
18139;DHT22;9195;53.176;9.486;2023-01-01T07:21:00;14.60;99.90
18139;DHT22;9195;53.176;9.486;2023-01-01T07:23:27;14.60;99.90
18139;DHT22;9195;53.176;9.486;2023-01-01T07:25:54;14.60;99.90
18139;DHT22;9195;53.176;9.486;2023-01-01T07:28:22;14.70;99.90
18139;DHT22;9195;53.176;9.486;2023-01-01T07:30:48;14.60;99.90
18139;DHT22;9195;53.176;9.486;2023-01-01T07:33:15;14.50;99.90
18139;DHT22;9195;53.176;9.486;2023-01-01T07:35:42;14.50;99.90
18139;DHT22;9195;53.176;9.486;2023-01-01T07:38:09;14.50;99.90
18139;DHT22;9195;53.176;9.486;2023-01-01T07:40:35;14.50;99.90
18139;DHT22;9195;53.176;9.486;2023-01-01T07:43:00;14.40;99.90
18139;DHT22;9195;53.176;9.486;2023-01-01T07:45:26;14.50;99.90
18139;DHT22;9195;53.176;9.486;2023-01-01T07:47:56;14.50;99.90
18139;DHT22;9195;53.176;9.486;2023-01-01T07:50:24;14.50;99.90
18139;DHT22;9195;53.176;9.486;2023-01-01T07:52:50;14.50;99.90
18139;DHT22;9195;53.176;9.486;2023-01-01T07:55:17;14.50;99.90
18139;DHT22;9195;53.176;9.486;2023-01-01T07:57:43;14.50;99.90
18139;DHT22;9195;53.176;9.486;2023-01-01T08:00:11;14.50;99.90
18139;DHT22;9195;53.176;9.486;2023-01-01T08:02:38;14.50;99.90
18139;DHT22;9195;53.176;9.486;2023-01-01T08:05:05;14.50;99.90
18139;DHT22;9195;53.176;9.486;2023-01-01T08:07:31;14.50;99.90
18139;DHT22;9195;53.176;9.486;2023-01-01T08:09:57;14.50;99.90
18139;DHT22;9195;53.176;9.486;2023-01-01T08:12:22;14.50;99.90
18139;DHT22;9195;53.176;9.486;2023-01-01T08:14:48;14.60;99.90
18139;DHT22;9195;53.176;9.486;2023-01-01T08:17:14;14.60;99.90
18139;DHT22;9195;53.176;9.486;2023-01-01T08:19:39;14.60;99.90
18139;DHT22;9195;53.176;9.486;2023-01-01T08:22:05;14.50;99.90
18139;DHT22;9195;53.176;9.486;2023-01-01T08:24:30;14.60;99.90
18139;DHT22;9195;53.176;9.486;2023-01-01T08:26:56;14.50;99.90
18139;DHT22;9195;53.176;9.486;2023-01-01T08:29:22;14.50;99.90
18139;DHT22;9195;53.176;9.486;2023-01-01T08:31:47;14.50;99.90
18139;DHT22;9195;53.176;9.486;2023-01-01T08:34:13;14.50;99.90
18139;DHT22;9195;53.176;9.486;2023-01-01T08:36:38;14.50;99.90
18139;DHT22;9195;53.176;9.486;2023-01-01T08:39:07;14.50;99.90
18139;DHT22;9195;53.176;9.486;2023-01-01T08:41:33;14.50;99.90
18139;DHT22;9195;53.176;9.486;2023-01-01T08:43:59;14.50;99.90
18139;DHT22;9195;53.176;9.486;2023-01-01T08:46:25;14.50;99.90
18139;DHT22;9195;53.176;9.486;2023-01-01T08:48:51;14.40;99.90
18139;DHT22;9195;53.176;9.486;2023-01-01T08:51:16;14.40;99.90
18139;DHT22;9195;53.176;9.486;2023-01-01T08:53:42;14.40;99.90
18139;DHT22;9195;53.176;9.486;2023-01-01T08:56:09;14.40;99.90
18139;DHT22;9195;53.176;9.486;2023-01-01T08:58:36;14.50;99.90
18139;DHT22;9195;53.176;9.486;2023-01-01T09:01:02;14.40;99.90
18139;DHT22;9195;53.176;9.486;2023-01-01T09:03:28;14.50;99.90
18139;DHT22;9195;53.176;9.486;2023-01-01T09:05:54;14.50;99.90
18139;DHT22;9195;53.176;9.486;2023-01-01T09:08:20;14.50;99.90
18139;DHT22;9195;53.176;9.486;2023-01-01T09:10:46;14.50;99.90
18139;DHT22;9195;53.176;9.486;2023-01-01T09:13:15;14.50;99.90
18139;DHT22;9195;53.176;9.486;2023-01-01T09:15:41;14.50;99.90
18139;DHT22;9195;53.176;9.486;2023-01-01T09:18:08;14.50;99.90
18139;DHT22;9195;53.176;9.486;2023-01-01T09:20:34;14.50;99.90
18139;DHT22;9195;53.176;9.486;2023-01-01T09:22:59;14.60;99.90
18139;DHT22;9195;53.176;9.486;2023-01-01T09:25:25;14.60;99.90
18139;DHT22;9195;53.176;9.486;2023-01-01T09:28:01;14.60;99.90
18139;DHT22;9195;53.176;9.486;2023-01-01T09:30:28;14.60;99.90
18139;DHT22;9195;53.176;9.486;2023-01-01T09:32:53;14.60;99.90
18139;DHT22;9195;53.176;9.486;2023-01-01T09:35:19;14.70;99.90
18139;DHT22;9195;53.176;9.486;2023-01-01T09:37:45;14.70;99.90
18139;DHT22;9195;53.176;9.486;2023-01-01T09:48:25;14.70;99.90
18139;DHT22;9195;53.176;9.486;2023-01-01T09:50:52;14.60;99.90
18139;DHT22;9195;53.176;9.486;2023-01-01T09:53:39;14.70;99.90
18139;DHT22;9195;53.176;9.486;2023-01-01T09:56:12;14.60;99.90
18139;DHT22;9195;53.176;9.486;2023-01-01T09:58:39;14.70;99.90
18139;DHT22;9195;53.176;9.486;2023-01-01T10:04:11;14.70;99.90
18139;DHT22;9195;53.176;9.486;2023-01-01T10:06:49;14.70;99.90
18139;DHT22;9195;53.176;9.486;2023-01-01T10:09:32;14.60;99.90
18139;DHT22;9195;53.176;9.486;2023-01-01T10:12:02;14.60;99.90
18139;DHT22;9195;53.176;9.486;2023-01-01T10:14:36;14.60;99.90
18139;DHT22;9195;53.176;9.486;2023-01-01T10:17:10;14.50;99.90
18139;DHT22;9195;53.176;9.486;2023-01-01T10:22:14;14.50;99.90
18139;DHT22;9195;53.176;9.486;2023-01-01T10:24:51;14.50;99.90
18139;DHT22;9195;53.176;9.486;2023-01-01T10:27:44;14.60;99.90
18139;DHT22;9195;53.176;9.486;2023-01-01T10:30:17;14.60;99.90
18139;DHT22;9195;53.176;9.486;2023-01-01T10:32:46;14.60;99.90
18139;DHT22;9195;53.176;9.486;2023-01-01T10:35:15;14.50;99.90
18139;DHT22;9195;53.176;9.486;2023-01-01T10:37:42;14.50;99.90
18139;DHT22;9195;53.176;9.486;2023-01-01T10:40:17;14.40;99.90
18139;DHT22;9195;53.176;9.486;2023-01-01T10:42:51;14.40;99.90
18139;DHT22;9195;53.176;9.486;2023-01-01T10:45:28;14.40;99.90
18139;DHT22;9195;53.176;9.486;2023-01-01T10:50:51;14.80;99.90
18139;DHT22;9195;53.176;9.486;2023-01-01T10:53:54;14.80;99.90
18139;DHT22;9195;53.176;9.486;2023-01-01T10:56:22;14.60;99.90
18139;DHT22;9195;53.176;9.486;2023-01-01T10:58:55;14.30;99.90
18139;DHT22;9195;53.176;9.486;2023-01-01T11:01:30;14.30;99.90
18139;DHT22;9195;53.176;9.486;2023-01-01T11:04:01;14.40;99.90
18139;DHT22;9195;53.176;9.486;2023-01-01T11:06:43;14.60;99.90
18139;DHT22;9195;53.176;9.486;2023-01-01T11:09:20;14.80;99.90
18139;DHT22;9195;53.176;9.486;2023-01-01T11:11:57;15.10;99.90
18139;DHT22;9195;53.176;9.486;2023-01-01T11:14:28;15.20;99.90
18139;DHT22;9195;53.176;9.486;2023-01-01T11:16:55;15.20;99.90
18139;DHT22;9195;53.176;9.486;2023-01-01T11:19:27;15.30;99.90
18139;DHT22;9195;53.176;9.486;2023-01-01T11:21:53;15.10;99.90
18139;DHT22;9195;53.176;9.486;2023-01-01T11:24:24;15.10;99.90
18139;DHT22;9195;53.176;9.486;2023-01-01T11:26:51;15.20;99.90
18139;DHT22;9195;53.176;9.486;2023-01-01T11:29:29;15.10;99.90
18139;DHT22;9195;53.176;9.486;2023-01-01T11:31:55;14.90;99.90
18139;DHT22;9195;53.176;9.486;2023-01-01T11:34:29;14.80;99.90
18139;DHT22;9195;53.176;9.486;2023-01-01T11:39:44;14.70;99.90
18139;DHT22;9195;53.176;9.486;2023-01-01T11:42:20;14.60;99.90
18139;DHT22;9195;53.176;9.486;2023-01-01T11:45:08;14.60;99.90
18139;DHT22;9195;53.176;9.486;2023-01-01T11:47:36;14.30;99.90
18139;DHT22;9195;53.176;9.486;2023-01-01T11:50:18;14.20;99.90
18139;DHT22;9195;53.176;9.486;2023-01-01T11:52:48;14.30;99.90
18139;DHT22;9195;53.176;9.486;2023-01-01T11:55:36;14.40;99.90
18139;DHT22;9195;53.176;9.486;2023-01-01T12:01:00;14.70;99.90
18139;DHT22;9195;53.176;9.486;2023-01-01T12:03:34;15.20;99.90
18139;DHT22;9195;53.176;9.486;2023-01-01T12:06:29;15.30;99.90
18139;DHT22;9195;53.176;9.486;2023-01-01T12:09:09;15.20;99.90
18139;DHT22;9195;53.176;9.486;2023-01-01T12:11:50;15.60;99.90
18139;DHT22;9195;53.176;9.486;2023-01-01T12:14:30;16.20;99.90
18139;DHT22;9195;53.176;9.486;2023-01-01T12:17:11;17.30;99.90
18139;DHT22;9195;53.176;9.486;2023-01-01T12:20:15;17.80;99.90
18139;DHT22;9195;53.176;9.486;2023-01-01T12:22:46;17.20;99.90
18139;DHT22;9195;53.176;9.486;2023-01-01T12:25:14;16.80;99.90
18139;DHT22;9195;53.176;9.486;2023-01-01T12:27:56;17.20;99.90
18139;DHT22;9195;53.176;9.486;2023-01-01T12:30:37;17.10;99.90
18139;DHT22;9195;53.176;9.486;2023-01-01T12:33:36;15.90;99.90
18139;DHT22;9195;53.176;9.486;2023-01-01T12:36:56;15.20;99.90
18139;DHT22;9195;53.176;9.486;2023-01-01T12:42:04;14.30;99.90
18139;DHT22;9195;53.176;9.486;2023-01-01T12:45:14;14.10;99.90
18139;DHT22;9195;53.176;9.486;2023-01-01T12:56:51;15.10;99.90
18139;DHT22;9195;53.176;9.486;2023-01-01T12:59:27;15.50;99.90
18139;DHT22;9195;53.176;9.486;2023-01-01T13:01:56;15.90;99.90
18139;DHT22;9195;53.176;9.486;2023-01-01T13:04:22;15.50;99.90
18139;DHT22;9195;53.176;9.486;2023-01-01T13:06:49;15.40;99.90
18139;DHT22;9195;53.176;9.486;2023-01-01T13:09:21;15.20;99.90
18139;DHT22;9195;53.176;9.486;2023-01-01T13:12:10;14.80;99.90
18139;DHT22;9195;53.176;9.486;2023-01-01T13:14:44;15.00;99.90
18139;DHT22;9195;53.176;9.486;2023-01-01T13:17:30;14.80;99.90
18139;DHT22;9195;53.176;9.486;2023-01-01T13:20:14;14.70;99.90
18139;DHT22;9195;53.176;9.486;2023-01-01T13:22:41;14.30;99.90
18139;DHT22;9195;53.176;9.486;2023-01-01T13:38:54;13.50;99.90
18139;DHT22;9195;53.176;9.486;2023-01-01T14:03:12;13.50;99.90
18139;DHT22;9195;53.176;9.486;2023-01-01T14:05:43;13.50;99.90
18139;DHT22;9195;53.176;9.486;2023-01-01T14:08:30;13.50;99.90
18139;DHT22;9195;53.176;9.486;2023-01-01T14:10:56;13.40;99.90
18139;DHT22;9195;53.176;9.486;2023-01-01T14:13:22;13.40;99.90
18139;DHT22;9195;53.176;9.486;2023-01-01T14:16:10;13.50;99.90
18139;DHT22;9195;53.176;9.486;2023-01-01T14:18:56;13.60;99.90
18139;DHT22;9195;53.176;9.486;2023-01-01T14:21:25;13.70;99.90
18139;DHT22;9195;53.176;9.486;2023-01-01T14:24:00;13.70;99.90
18139;DHT22;9195;53.176;9.486;2023-01-01T14:26:27;13.70;99.90
18139;DHT22;9195;53.176;9.486;2023-01-01T14:28:58;13.60;99.90
18139;DHT22;9195;53.176;9.486;2023-01-01T14:31:29;13.40;99.90
18139;DHT22;9195;53.176;9.486;2023-01-01T14:33:55;13.20;99.90
18139;DHT22;9195;53.176;9.486;2023-01-01T14:36:24;13.10;99.90
18139;DHT22;9195;53.176;9.486;2023-01-01T14:38:53;13.00;99.90
18139;DHT22;9195;53.176;9.486;2023-01-01T14:44:15;12.80;99.90
18139;DHT22;9195;53.176;9.486;2023-01-01T14:46:46;12.70;99.90
18139;DHT22;9195;53.176;9.486;2023-01-01T14:49:35;12.70;99.90
18139;DHT22;9195;53.176;9.486;2023-01-01T14:52:23;12.60;99.90
18139;DHT22;9195;53.176;9.486;2023-01-01T14:54:49;12.50;99.90
18139;DHT22;9195;53.176;9.486;2023-01-01T14:57:19;12.40;99.90
18139;DHT22;9195;53.176;9.486;2023-01-01T14:59:49;12.40;99.90
18139;DHT22;9195;53.176;9.486;2023-01-01T15:02:23;12.30;99.90
18139;DHT22;9195;53.176;9.486;2023-01-01T15:04:49;12.30;99.90
18139;DHT22;9195;53.176;9.486;2023-01-01T15:09:47;12.10;99.90
18139;DHT22;9195;53.176;9.486;2023-01-01T15:12:14;12.00;99.90
18139;DHT22;9195;53.176;9.486;2023-01-01T15:14:43;11.90;99.90
18139;DHT22;9195;53.176;9.486;2023-01-01T15:17:16;11.80;99.90
18139;DHT22;9195;53.176;9.486;2023-01-01T15:19:58;11.80;99.90
18139;DHT22;9195;53.176;9.486;2023-01-01T15:22:30;11.80;99.90
18139;DHT22;9195;53.176;9.486;2023-01-01T15:24:58;11.70;99.90
18139;DHT22;9195;53.176;9.486;2023-01-01T15:27:32;11.70;99.90
18139;DHT22;9195;53.176;9.486;2023-01-01T15:29:59;11.80;99.90
18139;DHT22;9195;53.176;9.486;2023-01-01T15:32:32;11.70;99.90
18139;DHT22;9195;53.176;9.486;2023-01-01T15:35:04;11.80;99.90
18139;DHT22;9195;53.176;9.486;2023-01-01T15:37:34;11.80;99.90
18139;DHT22;9195;53.176;9.486;2023-01-01T15:40:30;11.80;99.90
18139;DHT22;9195;53.176;9.486;2023-01-01T15:45:37;11.80;99.90
18139;DHT22;9195;53.176;9.486;2023-01-01T15:50:42;11.80;99.90
18139;DHT22;9195;53.176;9.486;2023-01-01T15:53:25;11.80;99.90
18139;DHT22;9195;53.176;9.486;2023-01-01T15:56:00;11.70;99.90
18139;DHT22;9195;53.176;9.486;2023-01-01T15:58:34;11.60;99.90
18139;DHT22;9195;53.176;9.486;2023-01-01T16:01:04;11.60;99.90
18139;DHT22;9195;53.176;9.486;2023-01-01T16:03:32;11.50;99.90
18139;DHT22;9195;53.176;9.486;2023-01-01T16:05:58;11.50;99.90
18139;DHT22;9195;53.176;9.486;2023-01-01T16:08:24;11.40;99.90
18139;DHT22;9195;53.176;9.486;2023-01-01T16:10:51;11.40;99.90
18139;DHT22;9195;53.176;9.486;2023-01-01T16:13:17;11.40;99.90
18139;DHT22;9195;53.176;9.486;2023-01-01T16:15:56;11.30;99.90
18139;DHT22;9195;53.176;9.486;2023-01-01T16:18:30;11.30;99.90
18139;DHT22;9195;53.176;9.486;2023-01-01T16:20:56;11.30;99.90
18139;DHT22;9195;53.176;9.486;2023-01-01T16:23:22;11.20;99.90
18139;DHT22;9195;53.176;9.486;2023-01-01T16:25:48;11.30;99.90
18139;DHT22;9195;53.176;9.486;2023-01-01T16:28:13;11.20;99.90
18139;DHT22;9195;53.176;9.486;2023-01-01T16:30:39;11.20;99.90
18139;DHT22;9195;53.176;9.486;2023-01-01T16:33:12;11.10;99.90
18139;DHT22;9195;53.176;9.486;2023-01-01T16:35:39;11.00;99.90
18139;DHT22;9195;53.176;9.486;2023-01-01T16:38:04;11.00;99.90
18139;DHT22;9195;53.176;9.486;2023-01-01T16:40:30;11.00;99.90
18139;DHT22;9195;53.176;9.486;2023-01-01T16:42:56;11.00;99.90
18139;DHT22;9195;53.176;9.486;2023-01-01T16:45:21;10.90;99.90
18139;DHT22;9195;53.176;9.486;2023-01-01T16:47:47;10.90;99.90
18139;DHT22;9195;53.176;9.486;2023-01-01T16:50:13;10.90;99.90
18139;DHT22;9195;53.176;9.486;2023-01-01T16:52:38;10.80;99.90
18139;DHT22;9195;53.176;9.486;2023-01-01T16:55:04;10.90;99.90
18139;DHT22;9195;53.176;9.486;2023-01-01T16:57:30;10.80;99.90
18139;DHT22;9195;53.176;9.486;2023-01-01T16:59:59;10.80;99.90
18139;DHT22;9195;53.176;9.486;2023-01-01T17:02:26;10.80;99.90
18139;DHT22;9195;53.176;9.486;2023-01-01T17:04:51;10.70;99.90
18139;DHT22;9195;53.176;9.486;2023-01-01T17:07:17;10.70;99.90
18139;DHT22;9195;53.176;9.486;2023-01-01T17:09:42;10.70;99.90
18139;DHT22;9195;53.176;9.486;2023-01-01T17:12:08;10.70;99.90
18139;DHT22;9195;53.176;9.486;2023-01-01T17:14:33;10.60;99.90
18139;DHT22;9195;53.176;9.486;2023-01-01T17:16:59;10.60;99.90
18139;DHT22;9195;53.176;9.486;2023-01-01T17:19:25;10.60;99.90
18139;DHT22;9195;53.176;9.486;2023-01-01T17:21:50;10.60;99.90
18139;DHT22;9195;53.176;9.486;2023-01-01T17:24:17;10.60;99.90
18139;DHT22;9195;53.176;9.486;2023-01-01T17:26:43;10.70;99.90
18139;DHT22;9195;53.176;9.486;2023-01-01T17:29:09;10.70;99.90
18139;DHT22;9195;53.176;9.486;2023-01-01T17:31:35;10.70;99.90
18139;DHT22;9195;53.176;9.486;2023-01-01T17:34:01;10.70;99.90
18139;DHT22;9195;53.176;9.486;2023-01-01T17:36:26;10.70;99.90
18139;DHT22;9195;53.176;9.486;2023-01-01T17:38:52;10.70;99.90
18139;DHT22;9195;53.176;9.486;2023-01-01T17:41:18;10.70;99.90
18139;DHT22;9195;53.176;9.486;2023-01-01T17:43:46;10.70;99.90
18139;DHT22;9195;53.176;9.486;2023-01-01T17:48:37;10.70;99.90
18139;DHT22;9195;53.176;9.486;2023-01-01T17:51:03;10.70;99.90
18139;DHT22;9195;53.176;9.486;2023-01-01T17:53:29;10.70;99.90
18139;DHT22;9195;53.176;9.486;2023-01-01T17:55:55;10.80;99.90
18139;DHT22;9195;53.176;9.486;2023-01-01T17:58:20;10.80;99.90
18139;DHT22;9195;53.176;9.486;2023-01-01T18:00:46;10.80;99.90
18139;DHT22;9195;53.176;9.486;2023-01-01T18:03:13;10.80;99.90
18139;DHT22;9195;53.176;9.486;2023-01-01T18:05:39;10.80;99.90
18139;DHT22;9195;53.176;9.486;2023-01-01T18:08:04;10.80;99.90